Terminal Aerodrome Forecast
Issued by NWS

Home | Current Version | Previous Version | Text Only | Print | Product List | Glossary On
Versions: 1 2 3 4 5 6 7 8 9 10 11 12 13 14 15 16 17 18 19
000
FTUS43 KGRR 230900 AAD
TAFBTL
TAF AMD
KBTL 230939Z 2310/2406 34006KT P6SM BKN012 OVC016
     FM231000 34008KT P6SM OVC008
     FM231400 35010KT P6SM BKN015
     FM231600 35010KT P6SM BKN040
     FM240000 01004KT P6SM FEW040=

USA.gov is the U.S. government's official web portal to all federal, state and local government web resources and services.